createdAt,value
2024-01-05T00:03:01.076Z,100.00
2024-01-05T00:08:04.208Z,100.00
2024-01-05T00:13:08.146Z,100.00
2024-01-05T00:18:11.226Z,100.00
2024-01-05T00:23:13.980Z,100.00
2024-01-05T00:28:16.617Z,100.00
2024-01-05T00:33:19.404Z,100.00
2024-01-05T00:38:22.070Z,100.00
2024-01-05T00:43:24.731Z,100.00
2024-01-05T00:48:27.789Z,100.00
2024-01-05T00:53:30.565Z,100.00
2024-01-05T00:58:33.974Z,100.00
2024-01-05T01:03:36.916Z,100.00
2024-01-05T01:08:39.652Z,100.00
2024-01-05T01:13:43.211Z,100.00
2024-01-05T01:18:45.994Z,100.00
2024-01-05T01:23:48.670Z,100.00
2024-01-05T01:28:51.541Z,100.00
2024-01-05T01:33:54.297Z,100.00
2024-01-05T01:38:57.029Z,100.00
2024-01-05T01:44:00.509Z,100.00
2024-01-05T01:49:05.133Z,100.00
2024-01-05T01:54:08.312Z,100.00
2024-01-05T01:59:11.268Z,100.00
2024-01-05T02:04:16.821Z,100.00
2024-01-05T02:09:20.108Z,100.00
2024-01-05T02:14:22.817Z,100.00
2024-01-05T02:19:26.639Z,100.00
2024-01-05T02:24:29.802Z,100.00
2024-01-05T02:29:32.465Z,100.00
2024-01-05T02:34:35.198Z,100.00
2024-01-05T02:39:38.160Z,100.00
2024-01-05T02:44:40.832Z,100.00
2024-01-05T02:49:43.836Z,100.00
2024-01-05T02:54:46.687Z,100.00
2024-01-05T02:59:49.253Z,100.00
2024-01-05T03:04:53.345Z,100.00
2024-01-05T03:09:56.089Z,100.00
2024-01-05T03:14:59.155Z,100.00
2024-01-05T03:20:02.153Z,100.00
2024-01-05T03:25:05.252Z,100.00
2024-01-05T03:30:08.747Z,100.00
2024-01-05T03:35:11.513Z,100.00
2024-01-05T03:40:14.189Z,100.00
2024-01-05T03:45:17.017Z,100.00
2024-01-05T03:50:20.567Z,99.27
2024-01-05T03:55:23.211Z,97.83
2024-01-05T04:00:25.889Z,95.65
2024-01-05T04:05:28.610Z,91.73
2024-01-05T04:10:31.357Z,89.93
2024-01-05T04:15:37.680Z,90.69
2024-01-05T04:20:40.300Z,89.42
2024-01-05T04:25:42.981Z,88.81
2024-01-05T04:30:45.631Z,88.73
2024-01-05T04:35:48.662Z,86.56
2024-01-05T04:40:51.317Z,87.28
2024-01-05T04:45:54.186Z,87.39
2024-01-05T04:50:56.871Z,86.92
2024-01-05T04:55:59.530Z,87.62
2024-01-05T05:01:02.299Z,87.79
2024-01-05T05:06:05.162Z,87.83
2024-01-05T05:11:07.854Z,88.70
2024-01-05T05:16:10.538Z,87.65
2024-01-05T05:21:13.188Z,88.48
2024-01-05T05:26:15.815Z,86.92
2024-01-05T05:31:18.659Z,86.86
2024-01-05T05:36:21.401Z,86.87
2024-01-05T05:41:24.117Z,86.99
2024-01-05T05:46:26.798Z,88.07
2024-01-05T05:51:30.293Z,87.36
2024-01-05T05:56:33.094Z,86.37
2024-01-05T06:01:35.822Z,87.92
2024-01-05T06:06:38.657Z,87.99
2024-01-05T06:11:41.654Z,87.98
2024-01-05T06:16:44.818Z,88.77
2024-01-05T06:21:47.871Z,89.69
2024-01-05T06:26:50.656Z,89.67
2024-01-05T06:31:53.346Z,90.92
2024-01-05T06:36:55.985Z,90.35
2024-01-05T06:41:58.672Z,90.81
2024-01-05T06:47:01.257Z,91.30
2024-01-05T06:52:03.953Z,92.44
2024-01-05T06:57:08.629Z,92.47
2024-01-05T07:02:12.299Z,93.99
2024-01-05T07:07:16.996Z,94.42
2024-01-05T07:12:20.780Z,95.64
2024-01-05T07:17:23.619Z,95.50
2024-01-05T07:22:26.464Z,96.46
2024-01-05T07:27:29.094Z,95.68
2024-01-05T07:32:31.716Z,95.81
2024-01-05T07:37:34.687Z,96.42
2024-01-05T07:42:37.269Z,97.65
2024-01-05T07:47:40.143Z,96.54
2024-01-05T07:52:42.985Z,95.71
2024-01-05T07:57:48.628Z,93.71
2024-01-05T08:02:52.271Z,93.53
2024-01-05T08:07:55.039Z,94.08
2024-01-05T08:12:57.847Z,94.98
2024-01-05T08:18:00.957Z,94.14
2024-01-05T08:23:03.903Z,95.31
2024-01-05T08:28:06.527Z,95.69
2024-01-05T08:33:09.424Z,94.88
2024-01-05T08:38:12.228Z,94.62
2024-01-05T08:43:14.915Z,93.81
2024-01-05T08:48:17.893Z,94.92
2024-01-05T08:53:22.482Z,93.71
2024-01-05T08:58:25.162Z,91.63
2024-01-05T09:03:29.065Z,92.05
2024-01-05T09:08:32.100Z,93.80
2024-01-05T09:13:37.601Z,94.87
2024-01-05T09:18:41.835Z,93.82
2024-01-05T09:23:44.829Z,94.42
2024-01-05T09:28:47.548Z,95.25
2024-01-05T09:33:51.510Z,95.04
2024-01-05T09:38:54.414Z,95.86
2024-01-05T09:43:58.198Z,96.03
2024-01-05T09:49:04.724Z,95.10
2024-01-05T09:54:08.132Z,93.14
2024-01-05T09:59:12.313Z,93.24
2024-01-05T10:04:15.170Z,94.04
2024-01-05T10:09:17.889Z,94.51
2024-01-05T10:14:27.590Z,93.76
2024-01-05T10:19:30.510Z,93.62
2024-01-05T10:24:33.351Z,94.10
2024-01-05T10:29:37.936Z,94.56
2024-01-05T10:34:48.592Z,94.62
2024-01-05T10:39:53.946Z,92.81
2024-01-05T10:44:58.937Z,92.84
2024-01-05T10:50:02.963Z,92.21
2024-01-05T10:55:07.379Z,93.47
2024-01-05T11:00:10.897Z,94.01
2024-01-05T11:05:15.752Z,88.03
2024-01-05T11:10:47.313Z,87.44
2024-01-05T11:16:26.585Z,90.04
2024-01-05T11:21:52.129Z,86.60
2024-01-05T11:26:56.813Z,88.02
2024-01-05T11:31:59.534Z,93.19
2024-01-05T11:37:03.843Z,94.70
2024-01-05T11:42:06.627Z,95.67
2024-01-05T11:47:09.423Z,97.11
2024-01-05T11:52:12.155Z,96.47
2024-01-05T11:57:15.288Z,97.68
2024-01-05T12:02:21.000Z,89.95
2024-01-05T12:07:24.773Z,90.39
2024-01-05T12:12:27.440Z,86.67
2024-01-05T12:17:30.219Z,89.36
2024-01-05T12:22:33.099Z,88.64
2024-01-05T12:27:40.217Z,95.92
2024-01-05T12:32:45.199Z,89.30
2024-01-05T12:37:55.116Z,88.69
2024-01-05T12:42:57.918Z,89.78
2024-01-05T12:48:11.831Z,86.25
2024-01-05T12:53:22.297Z,83.25
2024-01-05T12:58:25.138Z,81.27
2024-01-05T13:03:28.780Z,88.36
2024-01-05T13:08:36.205Z,89.46
2024-01-05T13:13:39.088Z,82.61
2024-01-05T13:18:42.023Z,84.86
2024-01-05T13:23:45.419Z,87.95
2024-01-05T13:28:48.291Z,87.84
2024-01-05T13:33:51.180Z,91.87
2024-01-05T13:38:53.918Z,92.40
2024-01-05T13:43:56.578Z,93.77
2024-01-05T13:48:59.311Z,96.21
2024-01-05T13:54:02.186Z,95.03
2024-01-05T13:59:04.961Z,93.59
2024-01-05T14:04:07.806Z,95.84
2024-01-05T14:09:10.689Z,95.29
2024-01-05T14:14:13.532Z,97.37
2024-01-05T14:19:16.449Z,100.00
2024-01-05T14:24:19.312Z,100.00
2024-01-05T14:29:25.963Z,100.00
2024-01-05T14:34:29.395Z,100.00
2024-01-05T14:39:32.299Z,100.00
2024-01-05T14:44:36.657Z,100.00
2024-01-05T14:49:39.709Z,100.00
2024-01-05T14:54:42.495Z,100.00
2024-01-05T14:59:45.235Z,100.00
2024-01-05T15:04:47.890Z,100.00
2024-01-05T15:09:51.100Z,100.00
2024-01-05T15:14:53.889Z,100.00
2024-01-05T15:19:57.180Z,100.00
2024-01-05T15:24:59.904Z,100.00
2024-01-05T15:30:02.766Z,100.00
2024-01-05T15:35:06.668Z,100.00
2024-01-05T15:40:09.768Z,100.00
2024-01-05T15:45:15.684Z,100.00
2024-01-05T15:50:18.413Z,100.00
2024-01-05T15:55:23.567Z,100.00
2024-01-05T16:00:26.351Z,100.00
2024-01-05T16:05:31.867Z,100.00
2024-01-05T16:10:34.496Z,100.00
2024-01-05T16:15:37.300Z,100.00
2024-01-05T16:20:42.592Z,100.00
2024-01-05T16:25:45.257Z,100.00
2024-01-05T16:30:49.236Z,100.00
2024-01-05T16:35:51.948Z,100.00
2024-01-05T16:40:55.200Z,100.00
2024-01-05T16:45:58.189Z,100.00
2024-01-05T16:51:01.012Z,100.00
2024-01-05T16:56:03.878Z,100.00
2024-01-05T17:01:08.346Z,100.00
2024-01-05T17:06:19.474Z,100.00
2024-01-05T17:11:26.951Z,100.00
2024-01-05T17:16:29.880Z,95.71
2024-01-05T17:21:32.567Z,87.50
2024-01-05T17:26:41.922Z,93.58
2024-01-05T17:31:44.707Z,100.00
2024-01-05T17:36:47.557Z,100.00
2024-01-05T17:41:50.563Z,100.00
2024-01-05T17:46:53.293Z,100.00
2024-01-05T17:51:56.077Z,100.00
2024-01-05T17:57:05.621Z,98.74
2024-01-05T18:02:08.701Z,100.00
2024-01-05T18:07:11.594Z,100.00
2024-01-05T18:12:14.483Z,100.00
2024-01-05T18:17:17.211Z,100.00
2024-01-05T18:22:21.358Z,95.37
2024-01-05T18:27:25.347Z,89.18
2024-01-05T18:32:28.294Z,99.00
2024-01-05T18:37:31.188Z,100.00
2024-01-05T18:42:34.732Z,100.00
2024-01-05T18:47:37.438Z,100.00
2024-01-05T18:52:40.322Z,100.00
2024-01-05T18:57:43.112Z,100.00
2024-01-05T19:02:45.807Z,100.00
2024-01-05T19:07:48.472Z,100.00
2024-01-05T19:12:51.197Z,100.00
2024-01-05T19:17:54.264Z,100.00
2024-01-05T19:22:58.084Z,100.00
2024-01-05T19:28:00.743Z,100.00
2024-01-05T19:33:03.732Z,100.00
2024-01-05T19:38:06.456Z,100.00
2024-01-05T19:43:09.048Z,100.00
2024-01-05T19:48:11.984Z,99.85
2024-01-05T19:53:14.868Z,100.00
2024-01-05T19:58:17.499Z,100.00
2024-01-05T20:03:20.339Z,100.00
2024-01-05T20:08:23.170Z,96.47
2024-01-05T20:13:26.063Z,92.18
2024-01-05T20:18:28.904Z,86.30
2024-01-05T20:23:31.668Z,84.57
2024-01-05T20:28:34.407Z,78.34
2024-01-05T20:33:37.264Z,84.35
2024-01-05T20:38:40.109Z,91.45
2024-01-05T20:43:42.936Z,90.42
2024-01-05T20:48:45.824Z,91.84
2024-01-05T20:53:48.755Z,97.61
2024-01-05T20:58:51.463Z,94.44
2024-01-05T21:03:54.146Z,94.67
2024-01-05T21:08:56.917Z,98.91
2024-01-05T21:13:59.522Z,100.00
2024-01-05T21:19:02.231Z,100.00
2024-01-05T21:24:05.156Z,100.00
2024-01-05T21:29:07.846Z,95.28
2024-01-05T21:34:10.616Z,100.00
2024-01-05T21:39:18.167Z,100.00
2024-01-05T21:44:22.779Z,100.00
2024-01-05T21:49:26.164Z,100.00
2024-01-05T21:54:29.065Z,100.00
2024-01-05T21:59:34.767Z,100.00
2024-01-05T22:04:38.390Z,100.00
2024-01-05T22:09:41.301Z,100.00
2024-01-05T22:14:43.915Z,100.00
2024-01-05T22:19:46.677Z,95.87
2024-01-05T22:24:49.462Z,95.88
2024-01-05T22:29:52.121Z,100.00
2024-01-05T22:34:54.864Z,100.00
2024-01-05T22:39:58.257Z,100.00
2024-01-05T22:45:01.098Z,100.00
2024-01-05T22:50:04.020Z,100.00
2024-01-05T22:55:07.169Z,100.00
2024-01-05T23:00:11.624Z,100.00
2024-01-05T23:05:14.488Z,100.00
2024-01-05T23:10:17.123Z,94.99
2024-01-05T23:15:19.861Z,97.19
2024-01-05T23:20:22.502Z,100.00
2024-01-05T23:25:25.129Z,100.00
2024-01-05T23:30:27.915Z,100.00
2024-01-05T23:35:30.583Z,100.00
2024-01-05T23:40:33.268Z,100.00
2024-01-05T23:45:35.970Z,87.00
2024-01-05T23:50:38.718Z,93.68
2024-01-05T23:55:41.561Z,96.71
